sensor_id;sensor_type;location;lat;lon;timestamp;P1;durP1;ratioP1;P2;durP2;ratioP2
84778;SDS011;75010;50.866;20.620;2023-12-20T00:00:04;11;;;10;;
84778;SDS011;75010;50.866;20.620;2023-12-20T00:07:05;11;;;10;;
84778;SDS011;75010;50.866;20.620;2023-12-20T00:14:02;20;;;18;;
84778;SDS011;75010;50.866;20.620;2023-12-20T00:21:06;20;;;18;;
84778;SDS011;75010;50.866;20.620;2023-12-20T00:28:08;20;;;18;;
84778;SDS011;75010;50.866;20.620;2023-12-20T00:35:03;13;;;12;;
84778;SDS011;75010;50.866;20.620;2023-12-20T00:42:02;13;;;12;;
84778;SDS011;75010;50.866;20.620;2023-12-20T00:49:05;13;;;13;;
84778;SDS011;75010;50.866;20.620;2023-12-20T00:56:06;13;;;13;;
84778;SDS011;75010;50.866;20.620;2023-12-20T01:00:04;13;;;13;;
84778;SDS011;75010;50.866;20.620;2023-12-20T01:07:09;20;;;18;;
84778;SDS011;75010;50.866;20.620;2023-12-20T01:14:07;20;;;18;;
84778;SDS011;75010;50.866;20.620;2023-12-20T01:21:02;20;;;18;;
84778;SDS011;75010;50.866;20.620;2023-12-20T01:28:05;17;;;16;;
84778;SDS011;75010;50.866;20.620;2023-12-20T01:35:09;17;;;16;;
84778;SDS011;75010;50.866;20.620;2023-12-20T01:49:02;18;;;16;;
84778;SDS011;75010;50.866;20.620;2023-12-20T01:56:04;18;;;16;;
84778;SDS011;75010;50.866;20.620;2023-12-20T02:00:05;18;;;16;;
84778;SDS011;75010;50.866;20.620;2023-12-20T02:07:13;18;;;17;;
84778;SDS011;75010;50.866;20.620;2023-12-20T02:14:04;18;;;17;;
84778;SDS011;75010;50.866;20.620;2023-12-20T02:21:09;17;;;15;;
84778;SDS011;75010;50.866;20.620;2023-12-20T02:28:06;17;;;15;;
84778;SDS011;75010;50.866;20.620;2023-12-20T02:35:02;17;;;15;;
84778;SDS011;75010;50.866;20.620;2023-12-20T02:42:06;16;;;13;;
84778;SDS011;75010;50.866;20.620;2023-12-20T02:49:09;16;;;13;;
84778;SDS011;75010;50.866;20.620;2023-12-20T02:56:05;16;;;14;;
84778;SDS011;75010;50.866;20.620;2023-12-20T03:00:11;16;;;14;;
84778;SDS011;75010;50.866;20.620;2023-12-20T03:07:02;16;;;14;;
84778;SDS011;75010;50.866;20.620;2023-12-20T03:14:05;16;;;15;;
84778;SDS011;75010;50.866;20.620;2023-12-20T03:21:11;16;;;15;;
84778;SDS011;75010;50.866;20.620;2023-12-20T03:28:06;16;;;15;;
84778;SDS011;75010;50.866;20.620;2023-12-20T03:35:05;16;;;13;;
84778;SDS011;75010;50.866;20.620;2023-12-20T03:42:07;16;;;13;;
84778;SDS011;75010;50.866;20.620;2023-12-20T03:49:07;13;;;13;;
84778;SDS011;75010;50.866;20.620;2023-12-20T03:56:02;13;;;13;;
84778;SDS011;75010;50.866;20.620;2023-12-20T04:00:11;13;;;13;;
84778;SDS011;75010;50.866;20.620;2023-12-20T04:07:02;13;;;13;;
84778;SDS011;75010;50.866;20.620;2023-12-20T04:14:02;14;;;12;;
84778;SDS011;75010;50.866;20.620;2023-12-20T04:21:09;14;;;12;;
84778;SDS011;75010;50.866;20.620;2023-12-20T04:28:08;16;;;12;;
84778;SDS011;75010;50.866;20.620;2023-12-20T04:35:05;16;;;12;;
84778;SDS011;75010;50.866;20.620;2023-12-20T04:49:02;14;;;13;;
84778;SDS011;75010;50.866;20.620;2023-12-20T04:56:07;14;;;13;;
84778;SDS011;75010;50.866;20.620;2023-12-20T05:00:09;14;;;13;;
84778;SDS011;75010;50.866;20.620;2023-12-20T05:07:05;18;;;16;;
84778;SDS011;75010;50.866;20.620;2023-12-20T05:14:10;18;;;16;;
84778;SDS011;75010;50.866;20.620;2023-12-20T05:21:03;19;;;15;;
84778;SDS011;75010;50.866;20.620;2023-12-20T05:28:09;19;;;15;;
84778;SDS011;75010;50.866;20.620;2023-12-20T05:35:10;19;;;15;;
84778;SDS011;75010;50.866;20.620;2023-12-20T05:42:03;15;;;14;;
84778;SDS011;75010;50.866;20.620;2023-12-20T05:49:04;15;;;14;;
84778;SDS011;75010;50.866;20.620;2023-12-20T05:56:04;16;;;14;;
84778;SDS011;75010;50.866;20.620;2023-12-20T06:00:03;16;;;14;;
84778;SDS011;75010;50.866;20.620;2023-12-20T06:07:08;16;;;14;;
84778;SDS011;75010;50.866;20.620;2023-12-20T06:14:06;19;;;18;;
84778;SDS011;75010;50.866;20.620;2023-12-20T06:21:13;19;;;18;;
84778;SDS011;75010;50.866;20.620;2023-12-20T06:28:05;19;;;18;;
84778;SDS011;75010;50.866;20.620;2023-12-20T06:35:02;12;;;11;;
84778;SDS011;75010;50.866;20.620;2023-12-20T06:42:08;12;;;11;;
84778;SDS011;75010;50.866;20.620;2023-12-20T06:49:08;14;;;14;;
84778;SDS011;75010;50.866;20.620;2023-12-20T06:56:12;14;;;14;;
84778;SDS011;75010;50.866;20.620;2023-12-20T07:00:11;14;;;14;;
84778;SDS011;75010;50.866;20.620;2023-12-20T07:07:08;15;;;13;;
84778;SDS011;75010;50.866;20.620;2023-12-20T07:14:08;15;;;13;;
84778;SDS011;75010;50.866;20.620;2023-12-20T07:21:03;15;;;13;;
84778;SDS011;75010;50.866;20.620;2023-12-20T07:28:09;14;;;14;;
84778;SDS011;75010;50.866;20.620;2023-12-20T07:35:11;14;;;14;;
84778;SDS011;75010;50.866;20.620;2023-12-20T07:49:05;19;;;18;;
84778;SDS011;75010;50.866;20.620;2023-12-20T07:56:20;19;;;18;;
84778;SDS011;75010;50.866;20.620;2023-12-20T08:00:11;19;;;18;;
84778;SDS011;75010;50.866;20.620;2023-12-20T08:07:05;17;;;16;;
84778;SDS011;75010;50.866;20.620;2023-12-20T08:14:04;17;;;16;;
84778;SDS011;75010;50.866;20.620;2023-12-20T08:21:08;18;;;16;;
84778;SDS011;75010;50.866;20.620;2023-12-20T08:28:09;18;;;16;;
84778;SDS011;75010;50.866;20.620;2023-12-20T08:35:03;18;;;16;;
84778;SDS011;75010;50.866;20.620;2023-12-20T08:42:06;12;;;11;;
84778;SDS011;75010;50.866;20.620;2023-12-20T08:49:02;12;;;11;;
84778;SDS011;75010;50.866;20.620;2023-12-20T08:56:02;17;;;16;;
84778;SDS011;75010;50.866;20.620;2023-12-20T09:00:12;17;;;16;;
84778;SDS011;75010;50.866;20.620;2023-12-20T09:07:05;17;;;16;;
84778;SDS011;75010;50.866;20.620;2023-12-20T09:14:09;13;;;12;;
84778;SDS011;75010;50.866;20.620;2023-12-20T09:21:02;13;;;12;;
84778;SDS011;75010;50.866;20.620;2023-12-20T09:28:08;13;;;12;;
84778;SDS011;75010;50.866;20.620;2023-12-20T09:35:07;9;;;7;;
84778;SDS011;75010;50.866;20.620;2023-12-20T09:42:07;9;;;7;;
84778;SDS011;75010;50.866;20.620;2023-12-20T09:49:08;10;;;7;;
84778;SDS011;75010;50.866;20.620;2023-12-20T09:56:04;10;;;7;;
84778;SDS011;75010;50.866;20.620;2023-12-20T10:00:10;10;;;7;;
84778;SDS011;75010;50.866;20.620;2023-12-20T10:07:05;11;;;10;;
84778;SDS011;75010;50.866;20.620;2023-12-20T10:14:07;11;;;10;;
84778;SDS011;75010;50.866;20.620;2023-12-20T10:21:02;11;;;10;;
84778;SDS011;75010;50.866;20.620;2023-12-20T10:28:16;14;;;14;;
84778;SDS011;75010;50.866;20.620;2023-12-20T10:35:08;14;;;14;;
84778;SDS011;75010;50.866;20.620;2023-12-20T10:49:09;8;;;8;;
84778;SDS011;75010;50.866;20.620;2023-12-20T10:56:19;8;;;8;;
84778;SDS011;75010;50.866;20.620;2023-12-20T11:00:15;8;;;8;;
84778;SDS011;75010;50.866;20.620;2023-12-20T11:07:19;7;;;6;;
84778;SDS011;75010;50.866;20.620;2023-12-20T11:14:19;7;;;6;;
84778;SDS011;75010;50.866;20.620;2023-12-20T11:21:04;7;;;6;;
84778;SDS011;75010;50.866;20.620;2023-12-20T11:28:15;13;;;13;;
84778;SDS011;75010;50.866;20.620;2023-12-20T11:35:22;13;;;13;;
84778;SDS011;75010;50.866;20.620;2023-12-20T11:42:05;7;;;7;;
84778;SDS011;75010;50.866;20.620;2023-12-20T11:49:07;7;;;7;;
84778;SDS011;75010;50.866;20.620;2023-12-20T11:56:08;7;;;6;;
84778;SDS011;75010;50.866;20.620;2023-12-20T12:00:06;7;;;6;;
84778;SDS011;75010;50.866;20.620;2023-12-20T12:07:05;7;;;6;;
84778;SDS011;75010;50.866;20.620;2023-12-20T12:14:06;8;;;7;;
84778;SDS011;75010;50.866;20.620;2023-12-20T12:21:05;8;;;7;;
84778;SDS011;75010;50.866;20.620;2023-12-20T12:28:04;8;;;7;;
84778;SDS011;75010;50.866;20.620;2023-12-20T12:35:03;7;;;6;;
84778;SDS011;75010;50.866;20.620;2023-12-20T12:42:04;7;;;6;;
84778;SDS011;75010;50.866;20.620;2023-12-20T12:49:08;11;;;10;;
84778;SDS011;75010;50.866;20.620;2023-12-20T12:56:09;11;;;10;;
84778;SDS011;75010;50.866;20.620;2023-12-20T13:00:01;11;;;10;;
84778;SDS011;75010;50.866;20.620;2023-12-20T13:07:02;8;;;8;;
84778;SDS011;75010;50.866;20.620;2023-12-20T13:14:08;8;;;8;;
84778;SDS011;75010;50.866;20.620;2023-12-20T13:21:02;8;;;8;;
84778;SDS011;75010;50.866;20.620;2023-12-20T13:28:09;11;;;11;;
84778;SDS011;75010;50.866;20.620;2023-12-20T13:35:02;11;;;11;;
84778;SDS011;75010;50.866;20.620;2023-12-20T13:49:07;9;;;6;;
84778;SDS011;75010;50.866;20.620;2023-12-20T13:56:09;9;;;6;;
84778;SDS011;75010;50.866;20.620;2023-12-20T14:00:15;9;;;6;;
84778;SDS011;75010;50.866;20.620;2023-12-20T14:07:04;8;;;6;;
84778;SDS011;75010;50.866;20.620;2023-12-20T15:01:36;7;;;5;;
84778;SDS011;75010;50.866;20.620;2023-12-20T15:01:36;7;;;5;;
84778;SDS011;75010;50.866;20.620;2023-12-20T15:01:36;7;;;5;;
84778;SDS011;75010;50.866;20.620;2023-12-20T15:21:36;7;;;6;;
84778;SDS011;75010;50.866;20.620;2023-12-20T15:41:36;8;;;7;;
84778;SDS011;75010;50.866;20.620;2023-12-20T15:41:36;8;;;7;;
84778;SDS011;75010;50.866;20.620;2023-12-20T16:01:36;11;;;10;;
84778;SDS011;75010;50.866;20.620;2023-12-20T16:01:36;11;;;10;;
84778;SDS011;75010;50.866;20.620;2023-12-20T16:01:36;11;;;10;;
84778;SDS011;75010;50.866;20.620;2023-12-20T16:11:36;9;;;7;;
84778;SDS011;75010;50.866;20.620;2023-12-20T16:11:36;9;;;7;;
84778;SDS011;75010;50.866;20.620;2023-12-20T16:47:05;11;;;11;;
84778;SDS011;75010;50.866;20.620;2023-12-20T16:50:07;11;;;11;;
84778;SDS011;75010;50.866;20.620;2023-12-20T17:00:04;11;;;11;;
84778;SDS011;75010;50.866;20.620;2023-12-20T17:10:04;9;;;8;;
84778;SDS011;75010;50.866;20.620;2023-12-20T17:30:10;10;;;9;;
84778;SDS011;75010;50.866;20.620;2023-12-20T17:30:58;10;;;9;;
84778;SDS011;75010;50.866;20.620;2023-12-20T17:37:14;15;;;10;;
84778;SDS011;75010;50.866;20.620;2023-12-20T17:40:08;15;;;10;;
84778;SDS011;75010;50.866;20.620;2023-12-20T17:50:08;15;;;10;;
84778;SDS011;75010;50.866;20.620;2023-12-20T17:57:01;13;;;10;;
84778;SDS011;75010;50.866;20.620;2023-12-20T17:57:29;13;;;10;;
84778;SDS011;75010;50.866;20.620;2023-12-20T17:58:07;13;;;10;;
84778;SDS011;75010;50.866;20.620;2023-12-20T18:00:26;13;;;10;;
84778;SDS011;75010;50.866;20.620;2023-12-20T18:09:51;13;;;10;;
84778;SDS011;75010;50.866;20.620;2023-12-20T18:10:02;13;;;10;;
84778;SDS011;75010;50.866;20.620;2023-12-20T18:17:59;15;;;15;;
84778;SDS011;75010;50.866;20.620;2023-12-20T18:20:05;15;;;15;;
84778;SDS011;75010;50.866;20.620;2023-12-20T18:30:07;15;;;15;;
84778;SDS011;75010;50.866;20.620;2023-12-20T18:40:03;22;;;19;;
84778;SDS011;75010;50.866;20.620;2023-12-20T18:50:09;20;;;18;;
84778;SDS011;75010;50.866;20.620;2023-12-20T19:00:02;20;;;18;;
84778;SDS011;75010;50.866;20.620;2023-12-20T19:10:06;23;;;19;;
84778;SDS011;75010;50.866;20.620;2023-12-20T19:20:07;23;;;19;;
84778;SDS011;75010;50.866;20.620;2023-12-20T19:30:03;26;;;21;;
84778;SDS011;75010;50.866;20.620;2023-12-20T19:40:06;26;;;21;;
84778;SDS011;75010;50.866;20.620;2023-12-20T19:50:03;21;;;20;;
84778;SDS011;75010;50.866;20.620;2023-12-20T20:00:10;21;;;20;;
84778;SDS011;75010;50.866;20.620;2023-12-20T20:10:04;28;;;26;;
84778;SDS011;75010;50.866;20.620;2023-12-20T20:20:03;16;;;14;;
84778;SDS011;75010;50.866;20.620;2023-12-20T20:30:02;16;;;14;;
84778;SDS011;75010;50.866;20.620;2023-12-20T20:40:05;20;;;18;;
84778;SDS011;75010;50.866;20.620;2023-12-20T20:50:06;20;;;18;;
84778;SDS011;75010;50.866;20.620;2023-12-20T21:00:08;16;;;14;;
84778;SDS011;75010;50.866;20.620;2023-12-20T21:10:05;16;;;14;;
84778;SDS011;75010;50.866;20.620;2023-12-20T21:20:02;16;;;15;;
84778;SDS011;75010;50.866;20.620;2023-12-20T21:30:06;16;;;15;;
84778;SDS011;75010;50.866;20.620;2023-12-20T21:40:08;18;;;16;;
84778;SDS011;75010;50.866;20.620;2023-12-20T21:50:02;5;;;5;;
84778;SDS011;75010;50.866;20.620;2023-12-20T22:00:04;5;;;5;;
84778;SDS011;75010;50.866;20.620;2023-12-20T22:10:03;4;;;3;;
84778;SDS011;75010;50.866;20.620;2023-12-20T22:20:02;4;;;3;;
84778;SDS011;75010;50.866;20.620;2023-12-20T22:30:10;4;;;3;;
84778;SDS011;75010;50.866;20.620;2023-12-20T22:40:07;4;;;3;;
84778;SDS011;75010;50.866;20.620;2023-12-20T22:50:03;5;;;4;;
84778;SDS011;75010;50.866;20.620;2023-12-20T23:00:04;5;;;4;;
84778;SDS011;75010;50.866;20.620;2023-12-20T23:10:02;6;;;6;;
84778;SDS011;75010;50.866;20.620;2023-12-20T23:20:05;10;;;8;;
84778;SDS011;75010;50.866;20.620;2023-12-20T23:30:07;10;;;8;;
84778;SDS011;75010;50.866;20.620;2023-12-20T23:40:05;7;;;6;;
84778;SDS011;75010;50.866;20.620;2023-12-20T23:50:04;7;;;6;;
